Time;durP1;ratioP1;P1;durP2;ratioP2;P2;SDS_P1;SDS_P2;PMS_P1;PMS_P2;Temp;Humidity;BMP_temperature;BMP_pressure;BME280_temperature;BME280_humidity;BME280_pressure;Samples;Min_cycle;Max_cycle;Signal;HPM_P1;HPM_P2
2023/12/04 09:16:17;;;;;;;5.50;3.90;;;;;;;;;;6277672;22;20007;-88
2023/12/04 09:18:43;;;;;;;6.63;4.32;;;;;;;;;;6285552;22;20065;-91
2023/12/04 09:21:08;;;;;;;5.63;3.90;;;;;;;;;;6281387;22;20035;-93
2023/12/04 09:23:35;;;;;;;7.32;3.90;;;;;;;;;;6282766;22;20026;-91
2023/12/04 09:26:01;;;;;;;6.45;4.88;;;;;;;;;;6286330;22;20011;-87
2023/12/04 09:28:26;;;;;;;5.13;3.53;;;;;;;;;;6288512;22;20015;-86
2023/12/04 09:30:51;;;;;;;7.18;4.63;;;;;;;;;;6279114;22;19999;-89
2023/12/04 09:33:17;;;;;;;5.88;4.40;;;;;;;;;;6276925;22;20003;-89
2023/12/04 09:35:42;;;;;;;4.50;3.50;;;;;;;;;;6278674;22;20003;-86
2023/12/04 09:38:08;;;;;;;6.68;4.70;;;;;;;;;;6278414;22;20083;-88
2023/12/04 09:40:33;;;;;;;5.15;3.92;;;;;;;;;;6279338;22;19999;-93
2023/12/04 09:42:59;;;;;;;5.45;4.05;;;;;;;;;;6279425;22;20080;-91
2023/12/04 09:45:25;;;;;;;5.20;4.03;;;;;;;;;;6278341;22;20055;-92
2023/12/04 09:47:50;;;;;;;5.55;3.95;;;;;;;;;;6279380;22;20003;-92
2023/12/04 09:50:21;;;;;;;6.38;4.35;;;;;;;;;;6281640;22;20461;-93
2023/12/04 09:52:49;;;;;;;5.90;4.30;;;;;;;;;;6278916;22;20327;-92
2023/12/04 09:55:15;;;;;;;7.60;5.25;;;;;;;;;;6279415;22;20311;-89
2023/12/04 09:57:42;;;;;;;7.40;4.55;;;;;;;;;;6278939;22;20003;-89
2023/12/04 10:00:10;;;;;;;6.72;4.80;;;;;;;;;;6276893;22;20008;-89
2023/12/04 10:02:36;;;;;;;6.97;4.55;;;;;;;;;;6279079;22;20010;-88
2023/12/04 10:05:04;;;;;;;5.88;4.72;;;;;;;;;;6278144;22;20003;-88
2023/12/04 10:07:30;;;;;;;7.45;4.80;;;;;;;;;;6278731;22;20449;-86
2023/12/04 10:09:55;;;;;;;6.30;4.05;;;;;;;;;;6278170;22;20003;-86
2023/12/04 10:12:24;;;;;;;12.63;8.02;;;;;;;;;;6278074;22;20327;-86
2023/12/04 10:15:09;;;;;;;10.20;6.28;;;;;;;;;;6282414;22;20019;-86
2023/12/04 10:17:39;;;;;;;8.20;5.30;;;;;;;;;;6308836;22;20006;-86
2023/12/04 10:20:18;;;;;;;5.88;4.32;;;;;;;;;;6309000;22;20068;-88
2023/12/04 10:22:58;;;;;;;6.95;4.18;;;;;;;;;;6308842;22;20035;-87
2023/12/04 10:25:30;;;;;;;6.43;3.92;;;;;;;;;;6309098;22;20007;-87
2023/12/04 10:28:10;;;;;;;5.45;4.13;;;;;;;;;;6308909;22;20078;-87
2023/12/04 10:30:36;;;;;;;6.65;4.82;;;;;;;;;;6308837;22;20084;-86
2023/12/04 10:33:04;;;;;;;6.47;4.55;;;;;;;;;;6309040;22;20007;-86
2023/12/04 10:35:31;;;;;;;6.28;4.43;;;;;;;;;;6281449;22;20011;-85
2023/12/04 10:37:57;;;;;;;5.47;4.28;;;;;;;;;;6308875;22;20011;-88
2023/12/04 10:40:23;;;;;;;6.10;4.53;;;;;;;;;;6309224;22;20011;-88
2023/12/04 10:42:49;;;;;;;7.10;5.15;;;;;;;;;;6308840;22;20482;-87
2023/12/04 10:45:14;;;;;;;8.02;4.18;;;;;;;;;;6281449;22;20031;-85
2023/12/04 10:47:40;;;;;;;5.10;3.88;;;;;;;;;;6281837;22;20418;-89
2023/12/04 10:50:07;;;;;;;5.60;4.50;;;;;;;;;;6308559;22;20003;-87
2023/12/04 10:52:33;;;;;;;6.05;4.25;;;;;;;;;;6308099;22;20008;-88
2023/12/04 10:54:59;;;;;;;7.18;4.30;;;;;;;;;;6308690;22;20078;-90
2023/12/04 10:57:33;;;;;;;6.20;4.32;;;;;;;;;;6308732;22;20061;-88
2023/12/04 11:00:04;;;;;;;6.32;4.57;;;;;;;;;;6308463;22;20006;-90
2023/12/04 11:02:33;;;;;;;5.45;4.65;;;;;;;;;;6308561;22;19995;-87
2023/12/04 11:05:17;;;;;;;6.88;4.50;;;;;;;;;;6308753;22;20306;-87
2023/12/04 11:07:49;;;;;;;5.82;4.30;;;;;;;;;;6281348;22;20311;-88
2023/12/04 11:10:15;;;;;;;6.78;4.53;;;;;;;;;;6310901;22;19999;-85
2023/12/04 11:12:47;;;;;;;6.25;4.70;;;;;;;;;;6308417;22;20433;-84
2023/12/04 11:15:17;;;;;;;4.93;4.05;;;;;;;;;;6282534;22;20342;-91
2023/12/04 11:17:48;;;;;;;8.07;4.30;;;;;;;;;;6312063;22;20033;-89
2023/12/04 11:20:18;;;;;;;6.07;4.28;;;;;;;;;;6310637;22;19999;-89
2023/12/04 11:22:46;;;;;;;6.35;4.63;;;;;;;;;;6311679;22;20451;-87
2023/12/04 11:25:14;;;;;;;6.00;4.43;;;;;;;;;;6284377;22;20030;-92
2023/12/04 11:27:40;;;;;;;4.93;3.63;;;;;;;;;;6284042;22;20004;-90
2023/12/04 11:30:07;;;;;;;4.90;3.63;;;;;;;;;;6311243;22;20418;-94
2023/12/04 11:32:44;;;;;;;4.70;3.97;;;;;;;;;;6312757;22;19999;-94
2023/12/04 11:35:14;;;;;;;5.35;4.30;;;;;;;;;;6314582;22;20016;-92
2023/12/04 11:37:43;;;;;;;5.00;3.92;;;;;;;;;;6304282;22;20011;-83
2023/12/04 11:40:14;;;;;;;4.03;3.50;;;;;;;;;;6305315;22;20007;-86
2023/12/04 11:42:42;;;;;;;6.43;3.90;;;;;;;;;;6292423;22;20438;-91
2023/12/04 11:45:08;;;;;;;4.55;3.92;;;;;;;;;;6316720;22;19999;-85
2023/12/04 11:47:55;;;;;;;5.18;3.88;;;;;;;;;;6297486;22;20033;-84
2023/12/04 11:50:25;;;;;;;5.05;4.03;;;;;;;;;;6313692;22;19999;-92
2023/12/04 11:52:51;;;;;;;5.63;3.85;;;;;;;;;;6315729;22;19999;-88
2023/12/04 11:55:19;;;;;;;3.92;3.50;;;;;;;;;;6309100;22;20006;-87
2023/12/04 11:57:46;;;;;;;4.20;3.50;;;;;;;;;;6280772;22;20006;-89
2023/12/04 12:00:24;;;;;;;4.35;3.53;;;;;;;;;;6288870;22;20000;-85
2023/12/04 12:03:17;;;;;;;6.65;3.58;;;;;;;;;;6256209;22;20052;-85
2023/12/04 12:05:46;;;;;;;4.75;3.50;;;;;;;;;;6178093;23;19985;-83
2023/12/04 12:08:13;;;;;;;;;;;;;;;;;;6171012;23;20005;-88
2023/12/04 12:10:43;;;;;;;4.60;3.25;;;;;;;;;;6177187;23;19908;-90
2023/12/04 12:13:11;;;;;;;4.35;3.50;;;;;;;;;;6156834;23;20294;-88
2023/12/04 12:15:37;;;;;;;4.95;3.95;;;;;;;;;;6155584;23;20056;-89
2023/12/04 12:18:04;;;;;;;6.15;4.00;;;;;;;;;;6155704;23;20093;-92
2023/12/04 12:20:30;;;;;;;4.25;3.50;;;;;;;;;;6155459;23;20178;-89
2023/12/04 12:22:55;;;;;;;5.22;4.10;;;;;;;;;;6155608;23;20005;-87
2023/12/04 12:25:22;;;;;;;5.20;3.65;;;;;;;;;;6155463;23;20040;-92
2023/12/04 12:27:48;;;;;;;4.55;3.67;;;;;;;;;;6155711;23;20362;-87
2023/12/04 12:30:14;;;;;;;4.25;3.80;;;;;;;;;;6157793;23;20012;-85
2023/12/04 12:32:52;;;;;;;5.05;3.90;;;;;;;;;;6168148;23;20037;-82
2023/12/04 12:35:25;;;;;;;6.22;3.80;;;;;;;;;;6174885;23;20004;-81
2023/12/04 12:37:54;;;;;;;5.50;4.22;;;;;;;;;;6167239;23;20006;-82
2023/12/04 12:40:21;;;;;;;6.28;4.25;;;;;;;;;;6158666;23;20061;-83
2023/12/04 12:42:48;;;;;;;5.85;3.40;;;;;;;;;;6232622;22;20011;-84
2023/12/04 12:45:15;;;;;;;5.38;3.90;;;;;;;;;;6311378;22;19999;-82
2023/12/04 17:16:36;;;;;;;;;;;;;;;;;;6197647;23;19992;-82
2023/12/04 17:19:02;;;;;;;;;;;;;;;;;;6188409;23;20296;-80
2023/12/04 17:21:27;;;;;;;;;;;;;;;;;;6187945;23;19916;-77
2023/12/04 17:23:53;;;;;;;;;;;;;;;;;;6187739;23;19995;-81
2023/12/04 17:26:19;;;;;;;;;;;;;;;;;;6188397;23;20346;-84
2023/12/04 17:28:44;;;;;;;;;;;;;;;;;;6188468;23;19913;-82
2023/12/04 17:31:12;;;;;;;;;;;;;;;;;;6187895;23;20323;-78
2023/12/04 17:33:38;;;;;;;;;;;;;;;;;;6187893;23;19912;-84
2023/12/04 17:36:04;;;;;;;;;;;;;;;;;;6188168;23;19913;-84
2023/12/04 17:38:30;;;;;;;;;;;;;;;;;;6188169;23;19986;-90
2023/12/04 17:40:56;;;;;;;;;;;;;;;;;;6190012;23;20275;-83
2023/12/04 17:43:22;;;;;;;;;;;;;;;;;;6191175;23;20244;-83
2023/12/04 17:45:47;;;;;;;;;;;;;;;;;;6191149;23;19986;-85
2023/12/04 17:48:13;;;;;;;;;;;;;;;;;;6194352;23;19908;-84
2023/12/04 17:50:39;;;;;;;;;;;;;;;;;;6197817;23;19912;-83
2023/12/04 17:53:04;;;;;;;;;;;;;;;;;;6193280;23;19912;-92
2023/12/04 17:55:33;;;;;;;;;;;;;;;;;;6195612;23;19987;-95
2023/12/04 17:58:00;;;;;;;;;;;;;;;;;;6193253;23;19912;-93
2023/12/04 18:00:26;;;;;;;;;;;;;;;;;;6193680;23;19923;-86
2023/12/04 18:02:51;;;;;;;;;;;;;;;;;;6191089;23;19913;-87
2023/12/04 18:05:17;;;;;;;;;;;;;;;;;;6197958;23;19952;-83
2023/12/04 18:07:46;;;;;;;;;;;;;;;;;;6194031;23;19912;-96
2023/12/04 18:10:11;;;;;;;;;;;;;;;;;;6193821;23;19913;-85
2023/12/04 18:12:37;;;;;;;;;;;;;;;;;;6231280;22;20055;-95
2023/12/04 18:15:12;;;;;;;;;;;;;;;;;;6290225;22;19957;-94
2023/12/04 18:17:41;;;;;;;;;;;;;;;;;;6287571;22;19910;-83
2023/12/04 18:20:11;;;;;;;;;;;;;;;;;;6313602;22;19956;-94
2023/12/04 18:22:37;;;;;;;;;;;;;;;;;;6320054;22;19966;-87
2023/12/04 18:25:02;;;;;;;;;;;;;;;;;;6326087;22;19911;-82
2023/12/04 18:27:28;;;;;;;;;;;;;;;;;;6317359;22;20322;-90
2023/12/04 18:29:54;;;;;;;;;;;;;;;;;;6314191;22;19997;-94
2023/12/04 18:32:19;;;;;;;;;;;;;;;;;;6312213;22;19915;-91
2023/12/04 18:34:44;;;;;;;;;;;;;;;;;;6311214;22;19910;-95
2023/12/04 18:37:15;;;;;;;;;;;;;;;;;;6310610;22;19911;-93
2023/12/04 18:39:42;;;;;;;;;;;;;;;;;;6310804;22;19911;-81
2023/12/04 18:42:07;;;;;;;;;;;;;;;;;;6310916;22;19917;-95
2023/12/04 18:44:33;;;;;;;;;;;;;;;;;;6315264;22;19938;-94
2023/12/04 18:46:59;;;;;;;;;;;;;;;;;;6312231;22;19953;-96
2023/12/04 18:49:25;;;;;;;;;;;;;;;;;;6311298;22;19921;-82
2023/12/04 18:51:50;;;;;;;;;;;;;;;;;;6313133;22;19939;-95
2023/12/04 18:54:15;;;;;;;;;;;;;;;;;;6312043;22;20322;-90
2023/12/04 18:56:41;;;;;;;;;;;;;;;;;;6312855;22;19911;-86
2023/12/04 18:59:07;;;;;;;;;;;;;;;;;;6311680;22;19955;-91
2023/12/04 19:01:32;;;;;;;;;;;;;;;;;;6309968;22;19911;-86
2023/12/04 19:03:59;;;;;;;;;;;;;;;;;;6309784;22;20338;-87
2023/12/04 19:06:24;;;;;;;;;;;;;;;;;;6309956;22;20249;-79
2023/12/04 19:08:50;;;;;;;;;;;;;;;;;;6310128;22;19915;-84
2023/12/04 19:11:15;;;;;;;;;;;;;;;;;;6309862;22;20250;-90
2023/12/04 19:13:40;;;;;;;;;;;;;;;;;;6283158;22;19942;-92
2023/12/04 19:16:06;;;;;;;;;;;;;;;;;;6310755;22;19992;-90
2023/12/04 19:18:31;;;;;;;;;;;;;;;;;;6310817;22;19911;-90
2023/12/04 19:20:57;;;;;;;;;;;;;;;;;;6310959;22;19911;-86
2023/12/04 19:23:22;;;;;;;;;;;;;;;;;;6309836;22;20215;-85
2023/12/04 19:25:47;;;;;;;;;;;;;;;;;;6310475;22;19911;-88
2023/12/04 19:28:13;;;;;;;;;;;;;;;;;;6311478;22;19960;-83
2023/12/04 19:30:41;;;;;;;;;;;;;;;;;;6316698;22;19984;-84
2023/12/04 19:33:06;;;;;;;;;;;;;;;;;;6288511;22;19918;-94
2023/12/04 19:35:32;;;;;;;;;;;;;;;;;;6285749;22;19911;-90
2023/12/04 19:38:03;;;;;;;;;;;;;;;;;;6317946;22;19911;-89
2023/12/04 19:40:29;;;;;;;;;;;;;;;;;;6314339;22;19911;-86
2023/12/04 19:42:54;;;;;;;;;;;;;;;;;;6312958;22;20219;-87
2023/12/04 19:45:20;;;;;;;;;;;;;;;;;;6309323;22;19990;-91
2023/12/04 19:47:45;;;;;;;;;;;;;;;;;;6309576;22;19911;-90
2023/12/04 19:50:11;;;;;;;;;;;;;;;;;;6309480;22;19994;-91
2023/12/04 19:52:37;;;;;;;;;;;;;;;;;;6309383;22;20267;-90
2023/12/04 19:55:03;;;;;;;;;;;;;;;;;;6309590;22;19986;-83
2023/12/04 19:57:28;;;;;;;;;;;;;;;;;;6309046;22;20318;-91
2023/12/04 19:59:54;;;;;;;;;;;;;;;;;;6310091;22;19918;-90
2023/12/04 20:02:19;;;;;;;;;;;;;;;;;;6309179;22;20334;-90
2023/12/04 20:04:46;;;;;;;;;;;;;;;;;;6309884;22;20250;-86
2023/12/04 20:07:12;;;;;;;;;;;;;;;;;;6282439;22;19938;-91
2023/12/04 20:09:39;;;;;;;;;;;;;;;;;;6309903;22;19910;-87
2023/12/04 20:12:04;;;;;;;;;;;;;;;;;;6309828;22;19915;-93
2023/12/04 20:14:30;;;;;;;;;;;;;;;;;;6309743;22;19972;-86
2023/12/04 20:16:55;;;;;;;;;;;;;;;;;;6311665;22;19911;-93
2023/12/04 20:19:20;;;;;;;;;;;;;;;;;;6311543;22;19911;-83
2023/12/04 20:21:46;;;;;;;;;;;;;;;;;;6310476;22;19911;-91
2023/12/04 20:24:11;;;;;;;;;;;;;;;;;;6311439;22;19917;-89
2023/12/04 20:26:37;;;;;;;;;;;;;;;;;;6311394;22;19911;-88
2023/12/04 20:29:02;;;;;;;;;;;;;;;;;;6311479;22;19973;-87
2023/12/04 20:31:27;;;;;;;;;;;;;;;;;;6310142;22;19964;-93
2023/12/04 20:33:53;;;;;;;;;;;;;;;;;;6311971;22;19910;-89
2023/12/04 20:36:18;;;;;;;;;;;;;;;;;;6314302;22;19911;-93
2023/12/04 20:38:43;;;;;;;;;;;;;;;;;;6316619;22;19994;-91
2023/12/04 20:41:09;;;;;;;;;;;;;;;;;;6331103;22;19963;-90
2023/12/04 20:43:37;;;;;;;;;;;;;;;;;;6323618;22;19915;-88
2023/12/04 20:46:03;;;;;;;;;;;;;;;;;;6286325;22;19960;-94
2023/12/04 20:48:32;;;;;;;;;;;;;;;;;;6313737;22;19910;-93
2023/12/04 20:50:57;;;;;;;;;;;;;;;;;;6285321;22;19911;-94
2023/12/04 20:53:23;;;;;;;;;;;;;;;;;;6312183;22;20005;-93
2023/12/04 20:55:48;;;;;;;;;;;;;;;;;;6285997;22;19917;-90
2023/12/04 20:58:20;;;;;;;16.50;11.68;;;;;;;;;;6312750;22;19914;-86
2023/12/04 21:00:46;;;;;;;20.20;12.50;;;;;;;;;;6310812;22;20033;-85
2023/12/04 21:03:12;;;;;;;17.00;11.88;;;;;;;;;;6310056;22;20003;-85
2023/12/04 21:05:38;;;;;;;16.00;11.50;;;;;;;;;;6309822;22;20078;-87
2023/12/04 21:08:04;;;;;;;23.45;13.30;;;;;;;;;;6309910;22;20001;-86
2023/12/04 21:10:30;;;;;;;;;;;;;;;;;;6310006;22;20007;-87
2023/12/04 21:12:55;;;;;;;;;;;;;;;;;;6310022;22;20190;-87
2023/12/04 21:15:21;;;;;;;;;;;;;;;;;;6310298;22;19911;-86
2023/12/04 21:17:46;;;;;;;;;;;;;;;;;;6310450;22;19911;-85
2023/12/04 21:20:11;;;;;;;;;;;;;;;;;;6310588;22;19980;-86
2023/12/04 21:22:37;;;;;;;;;;;;;;;;;;6283093;22;19989;-85
2023/12/04 21:25:03;;;;;;;;;;;;;;;;;;6282936;22;19918;-85
2023/12/04 21:27:31;;;;;;;;;;;;;;;;;;6310556;22;19911;-87
2023/12/04 21:29:57;;;;;;;;;;;;;;;;;;6310906;22;20325;-85
2023/12/04 21:32:22;;;;;;;;;;;;;;;;;;6310114;22;19911;-86
2023/12/04 21:34:48;;;;;;;;;;;;;;;;;;6310018;22;19941;-85
2023/12/04 21:37:13;;;;;;;;;;;;;;;;;;6309865;22;19911;-84
2023/12/04 21:39:40;;;;;;;;;;;;;;;;;;6310090;22;20250;-83
2023/12/04 21:42:07;;;;;;;;;;;;;;;;;;6309925;22;19911;-84
2023/12/04 21:44:33;;;;;;;;;;;;;;;;;;6309671;22;19915;-84
2023/12/04 21:46:58;;;;;;;;;;;;;;;;;;6282324;22;20238;-86
2023/12/04 21:49:23;;;;;;;;;;;;;;;;;;6310033;22;19911;-88
2023/12/04 21:51:49;;;;;;;;;;;;;;;;;;6309985;22;19968;-86
2023/12/04 21:54:14;;;;;;;;;;;;;;;;;;6309909;22;19911;-87
2023/12/04 21:56:39;;;;;;;;;;;;;;;;;;6309710;22;19921;-85
2023/12/04 21:59:05;;;;;;;;;;;;;;;;;;6310137;22;19911;-84
2023/12/04 22:01:30;;;;;;;;;;;;;;;;;;6309860;22;19987;-84
2023/12/04 22:03:55;;;;;;;;;;;;;;;;;;6309891;22;19917;-83
2023/12/04 22:06:22;;;;;;;;;;;;;;;;;;6309867;22;19911;-85
2023/12/04 22:08:47;;;;;;;;;;;;;;;;;;6309694;22;20338;-83
2023/12/04 22:11:12;;;;;;;;;;;;;;;;;;6309487;22;19990;-84
2023/12/04 22:13:38;;;;;;;;;;;;;;;;;;6309546;22;20323;-89
2023/12/04 22:16:03;;;;;;;;;;;;;;;;;;6309981;22;19918;-83
2023/12/04 22:18:31;;;;;;;;;;;;;;;;;;6309525;22;19911;-86
2023/12/04 22:20:57;;;;;;;;;;;;;;;;;;6309803;22;19911;-83
2023/12/04 22:23:22;;;;;;;;;;;;;;;;;;6309517;22;19911;-87
2023/12/04 22:25:48;;;;;;;;;;;;;;;;;;6309600;22;19934;-85
2023/12/04 22:28:13;;;;;;;;;;;;;;;;;;6309746;22;19986;-83
2023/12/04 22:30:39;;;;;;;;;;;;;;;;;;6309801;22;19922;-85
2023/12/04 22:33:04;;;;;;;;;;;;;;;;;;6309231;22;19911;-83
2023/12/04 22:35:29;;;;;;;;;;;;;;;;;;6309485;22;20292;-88
2023/12/04 22:37:59;;;;;;;;;;;;;;;;;;6309722;22;19911;-88
2023/12/04 22:40:25;;;;;;;;;;;;;;;;;;6309390;22;19911;-86
2023/12/04 22:42:50;;;;;;;;;;;;;;;;;;6309600;22;19955;-87
2023/12/04 22:45:15;;;;;;;;;;;;;;;;;;6309809;22;19915;-83
2023/12/04 22:47:42;;;;;;;;;;;;;;;;;;6309679;22;19911;-86
2023/12/04 22:50:08;;;;;;;;;;;;;;;;;;6309109;22;19964;-83
2023/12/04 22:52:33;;;;;;;;;;;;;;;;;;6309587;22;19910;-86
2023/12/04 22:54:58;;;;;;;;;;;;;;;;;;6309486;22;19911;-84
2023/12/04 22:57:24;;;;;;;;;;;;;;;;;;6309320;22;19911;-82
2023/12/04 22:59:49;;;;;;;;;;;;;;;;;;6310155;22;19914;-86
2023/12/04 23:02:15;;;;;;;;;;;;;;;;;;6309488;22;19911;-82
